Time;durP1;ratioP1;P1;durP2;ratioP2;P2;SDS_P1;SDS_P2;PMS_P1;PMS_P2;Temp;Humidity;BMP_temperature;BMP_pressure;BME280_temperature;BME280_humidity;BME280_pressure;Samples;Min_cycle;Max_cycle;Signal;HPM_P1;HPM_P2
2022/06/17 00:02:10;;;;;;;1.60;1.33;;;;;;;;;;7394351;19;20477;-84
2022/06/17 00:04:36;;;;;;;2.65;1.23;;;;;;;;;;7397733;19;20018;-84
2022/06/17 00:07:05;;;;;;;1.00;1.00;;;;;;;;;;7399939;19;19995;-84
2022/06/17 00:09:32;;;;;;;3.15;1.40;;;;;;;;;;7406328;19;20410;-84
2022/06/17 00:11:58;;;;;;;2.53;1.00;;;;;;;;;;7402327;19;20457;-84
2022/06/17 00:14:31;;;;;;;3.50;1.30;;;;;;;;;;7405934;19;20012;-84
2022/06/17 00:16:57;;;;;;;1.38;1.10;;;;;;;;;;7402927;19;19994;-84
2022/06/17 00:19:22;;;;;;;1.38;1.17;;;;;;;;;;7401935;19;19995;-83
2022/06/17 00:21:51;;;;;;;2.38;1.40;;;;;;;;;;7402816;19;20655;-83
2022/06/17 00:24:26;;;;;;;1.73;1.30;;;;;;;;;;7405207;19;20540;-84
2022/06/17 00:26:54;;;;;;;1.25;1.10;;;;;;;;;;7402382;19;20003;-83
2022/06/17 00:29:21;;;;;;;5.95;1.50;;;;;;;;;;7400821;19;20013;-84
2022/06/17 00:31:47;;;;;;;3.28;1.23;;;;;;;;;;7401818;19;20018;-84
2022/06/17 00:34:13;;;;;;;3.03;1.17;;;;;;;;;;7404615;19;20002;-84
2022/06/17 00:36:39;;;;;;;1.42;1.00;;;;;;;;;;7405765;19;20393;-84
2022/06/17 00:39:23;;;;;;;1.30;1.02;;;;;;;;;;7398632;19;20017;-84
2022/06/17 00:41:52;;;;;;;3.08;1.23;;;;;;;;;;7401104;19;20010;-83
2022/06/17 00:44:34;;;;;;;4.68;1.25;;;;;;;;;;7399043;19;20363;-83
2022/06/17 00:47:01;;;;;;;1.42;1.08;;;;;;;;;;7405163;19;20003;-84
2022/06/17 00:49:43;;;;;;;1.20;1.10;;;;;;;;;;7405970;19;20006;-83
2022/06/17 00:52:22;;;;;;;4.03;1.65;;;;;;;;;;7400717;19;20018;-84
2022/06/17 00:54:55;;;;;;;1.98;1.20;;;;;;;;;;7400492;19;19998;-84
2022/06/17 00:57:28;;;;;;;2.47;1.40;;;;;;;;;;7402558;19;20002;-83
2022/06/17 01:00:14;;;;;;;2.25;1.15;;;;;;;;;;7404281;19;20340;-84
2022/06/17 01:02:41;;;;;;;;;;;;;;;;;;7396445;19;20408;-84
2022/06/17 01:05:07;;;;;;;2.90;1.40;;;;;;;;;;7400583;19;19918;-83
2022/06/17 01:07:41;;;;;;;2.63;1.55;;;;;;;;;;7400591;19;19990;-84
2022/06/17 01:10:12;;;;;;;2.10;1.43;;;;;;;;;;7404377;19;20326;-84
2022/06/17 01:12:40;;;;;;;1.27;1.17;;;;;;;;;;7402337;19;20011;-83
2022/06/17 01:15:07;;;;;;;1.92;1.20;;;;;;;;;;7398439;19;20019;-84
2022/06/17 01:17:37;;;;;;;2.50;1.58;;;;;;;;;;7401693;19;20003;-83
2022/06/17 01:20:08;;;;;;;2.40;1.50;;;;;;;;;;7400721;19;20010;-83
2022/06/17 01:22:59;;;;;;;4.78;1.70;;;;;;;;;;7402399;19;20018;-83
2022/06/17 01:25:41;;;;;;;3.80;1.60;;;;;;;;;;7400607;19;20406;-83
2022/06/17 01:28:13;;;;;;;4.95;1.92;;;;;;;;;;7399886;19;20489;-84
2022/06/17 01:30:45;;;;;;;3.85;1.48;;;;;;;;;;7399788;19;20023;-82
2022/06/17 01:33:32;;;;;;;3.60;1.58;;;;;;;;;;7402577;19;20468;-84
2022/06/17 01:36:21;;;;;;;3.55;1.52;;;;;;;;;;7400383;19;19994;-84
2022/06/17 01:38:50;;;;;;;3.50;1.55;;;;;;;;;;7400319;19;20373;-84
2022/06/17 01:41:19;;;;;;;3.00;1.55;;;;;;;;;;7400596;19;20003;-83
2022/06/17 01:43:51;;;;;;;2.45;1.30;;;;;;;;;;7405041;19;20327;-84
2022/06/17 01:46:22;;;;;;;1.42;1.33;;;;;;;;;;7402151;19;20003;-84
2022/06/17 01:49:16;;;;;;;2.45;1.20;;;;;;;;;;7402512;19;20002;-84
2022/06/17 01:51:47;;;;;;;2.75;1.33;;;;;;;;;;7398235;19;20462;-83
2022/06/17 01:54:33;;;;;;;1.48;1.33;;;;;;;;;;7401517;19;20018;-84
2022/06/17 01:57:02;;;;;;;1.70;1.17;;;;;;;;;;7404394;19;20487;-84
2022/06/17 01:59:32;;;;;;;1.52;1.17;;;;;;;;;;7400203;19;20014;-84
2022/06/17 02:02:01;;;;;;;3.60;1.30;;;;;;;;;;7399031;19;20007;-83
2022/06/17 02:04:32;;;;;;;1.30;1.20;;;;;;;;;;7402985;19;19995;-84
2022/06/17 02:07:12;;;;;;;2.63;1.52;;;;;;;;;;7402745;19;20021;-83
2022/06/17 02:09:38;;;;;;;1.38;1.20;;;;;;;;;;7403318;19;20021;-84
2022/06/17 02:12:05;;;;;;;2.42;1.35;;;;;;;;;;7396595;19;20006;-82
2022/06/17 02:14:33;;;;;;;2.15;1.42;;;;;;;;;;7396342;19;20013;-83
2022/06/17 02:16:59;;;;;;;2.03;1.48;;;;;;;;;;7403970;19;19999;-84
2022/06/17 02:19:27;;;;;;;8.18;1.98;;;;;;;;;;7402452;19;20065;-83
2022/06/17 02:22:01;;;;;;;5.43;1.60;;;;;;;;;;7396713;19;20026;-83
2022/06/17 02:24:28;;;;;;;2.45;1.42;;;;;;;;;;7400420;19;20006;-84
2022/06/17 02:26:54;;;;;;;1.50;1.40;;;;;;;;;;7398597;19;20011;-83
2022/06/17 02:29:22;;;;;;;2.05;1.50;;;;;;;;;;7401334;19;20018;-83
2022/06/17 02:31:47;;;;;;;3.75;1.80;;;;;;;;;;7402123;19;19999;-83
2022/06/17 02:34:16;;;;;;;4.93;2.65;;;;;;;;;;7396385;19;20018;-84
2022/06/17 02:36:53;;;;;;;3.80;1.85;;;;;;;;;;7398224;19;20481;-84
2022/06/17 02:39:19;;;;;;;3.50;1.30;;;;;;;;;;7400138;19;20015;-83
2022/06/17 02:41:47;;;;;;;3.72;1.38;;;;;;;;;;7400256;19;20010;-83
2022/06/17 02:44:20;;;;;;;2.78;1.58;;;;;;;;;;7397642;19;20058;-83
2022/06/17 02:46:46;;;;;;;1.55;1.20;;;;;;;;;;7401599;19;20003;-83
2022/06/17 02:49:18;;;;;;;5.90;1.67;;;;;;;;;;7396638;19;20326;-84
2022/06/17 02:51:44;;;;;;;0.88;0.88;;;;;;;;;;7397788;19;19995;-84
2022/06/17 02:54:15;;;;;;;3.17;1.52;;;;;;;;;;7398348;19;20453;-84
2022/06/17 02:56:44;;;;;;;2.05;1.30;;;;;;;;;;7397279;19;20006;-83
2022/06/17 02:59:20;;;;;;;2.13;1.38;;;;;;;;;;7396336;19;20436;-84
2022/06/17 03:01:48;;;;;;;1.55;1.40;;;;;;;;;;7394455;19;20001;-83
2022/06/17 03:04:18;;;;;;;1.05;1.00;;;;;;;;;;7400265;19;20031;-84
2022/06/17 03:06:46;;;;;;;1.63;1.27;;;;;;;;;;7401983;19;20020;-84
2022/06/17 03:09:21;;;;;;;1.70;1.40;;;;;;;;;;7397008;19;20006;-83
2022/06/17 03:11:58;;;;;;;3.28;1.60;;;;;;;;;;7399368;19;20003;-84
2022/06/17 03:14:33;;;;;;;2.42;1.60;;;;;;;;;;7394380;19;20018;-84
2022/06/17 03:17:01;;;;;;;1.55;1.42;;;;;;;;;;7399978;19;20024;-84
2022/06/17 03:19:29;;;;;;;1.33;1.23;;;;;;;;;;7396156;19;20471;-84
2022/06/17 03:21:55;;;;;;;2.42;1.45;;;;;;;;;;7395670;19;20002;-84
2022/06/17 03:24:42;;;;;;;2.83;1.30;;;;;;;;;;7395628;19;20342;-84
2022/06/17 03:27:13;;;;;;;5.28;1.63;;;;;;;;;;7395730;19;20064;-84
2022/06/17 03:29:42;;;;;;;3.75;2.40;;;;;;;;;;7398244;19;19994;-83
2022/06/17 03:32:19;;;;;;;1.90;1.27;;;;;;;;;;7392395;19;20070;-83
2022/06/17 03:34:51;;;;;;;1.63;1.42;;;;;;;;;;7394284;19;20003;-83
2022/06/17 03:37:35;;;;;;;4.13;1.50;;;;;;;;;;7397715;19;20584;-83
2022/06/17 03:40:14;;;;;;;5.10;3.17;;;;;;;;;;7395500;19;20117;-83
2022/06/17 03:42:55;;;;;;;4.65;2.40;;;;;;;;;;7393290;19;20003;-83
2022/06/17 03:45:43;;;;;;;5.10;2.70;;;;;;;;;;7397599;19;19990;-84
2022/06/17 03:48:11;;;;;;;3.58;2.30;;;;;;;;;;7397290;19;20013;-83
2022/06/17 03:50:41;;;;;;;2.30;1.60;;;;;;;;;;7398626;19;20406;-84
2022/06/17 03:53:12;;;;;;;3.30;1.63;;;;;;;;;;7394480;19;19998;-83
2022/06/17 03:55:37;;;;;;;1.60;1.20;;;;;;;;;;7390884;19;20458;-84
2022/06/17 03:58:03;;;;;;;2.15;1.40;;;;;;;;;;7394150;19;20006;-83
2022/06/17 04:00:39;;;;;;;3.85;1.50;;;;;;;;;;7397780;19;19995;-84
2022/06/17 04:03:10;;;;;;;1.77;1.27;;;;;;;;;;7396592;19;20018;-83
2022/06/17 04:05:38;;;;;;;3.00;1.38;;;;;;;;;;7394994;19;20040;-83
2022/06/17 04:08:03;;;;;;;2.17;1.70;;;;;;;;;;7393241;19;20334;-82
2022/06/17 04:10:30;;;;;;;5.00;1.52;;;;;;;;;;7397172;19;20062;-84
2022/06/17 04:12:56;;;;;;;1.80;1.50;;;;;;;;;;7395298;19;20335;-84
2022/06/17 04:15:39;;;;;;;4.13;1.75;;;;;;;;;;7396445;19;20014;-83
2022/06/17 04:18:05;;;;;;;2.53;2.08;;;;;;;;;;7399156;19;19994;-83
2022/06/17 04:20:49;;;;;;;3.20;2.60;;;;;;;;;;7396881;19;20049;-84
2022/06/17 04:23:26;;;;;;;2.33;1.90;;;;;;;;;;7394711;19;20351;-84
2022/06/17 04:25:54;;;;;;;5.97;3.55;;;;;;;;;;7398294;19;20007;-84
2022/06/17 04:28:24;;;;;;;4.35;3.10;;;;;;;;;;7393189;19;19999;-84
2022/06/17 04:30:54;;;;;;;3.38;2.40;;;;;;;;;;7393766;19;20043;-84
2022/06/17 04:33:27;;;;;;;4.82;2.95;;;;;;;;;;7396534;19;20073;-84
2022/06/17 04:36:14;;;;;;;3.17;2.03;;;;;;;;;;7395671;19;20018;-83
2022/06/17 04:38:55;;;;;;;3.95;2.20;;;;;;;;;;7396689;19;20007;-84
2022/06/17 04:41:24;;;;;;;3.65;2.50;;;;;;;;;;7393915;19;20027;-83
2022/06/17 04:43:54;;;;;;;3.53;2.53;;;;;;;;;;7392660;19;20457;-84
2022/06/17 04:46:33;;;;;;;3.00;2.20;;;;;;;;;;7399703;19;19995;-83
2022/06/17 04:49:00;;;;;;;5.20;2.22;;;;;;;;;;7400835;19;20042;-83
2022/06/17 04:51:27;;;;;;;2.22;1.58;;;;;;;;;;7389560;19;20006;-82
2022/06/17 04:53:54;;;;;;;2.25;1.70;;;;;;;;;;7391146;19;20483;-84
2022/06/17 04:56:29;;;;;;;4.47;1.70;;;;;;;;;;7396028;19;20039;-83
2022/06/17 04:58:55;;;;;;;2.83;1.60;;;;;;;;;;7397505;19;19994;-83
2022/06/17 05:01:21;;;;;;;2.00;1.67;;;;;;;;;;7398544;19;20002;-83
2022/06/17 05:03:47;;;;;;;3.08;1.65;;;;;;;;;;7396088;19;19994;-83
2022/06/17 05:06:12;;;;;;;3.97;1.60;;;;;;;;;;7397802;19;20071;-83
2022/06/17 05:08:42;;;;;;;2.88;1.67;;;;;;;;;;7397246;19;20066;-84
2022/06/17 05:11:39;;;;;;;1.80;1.30;;;;;;;;;;7398521;19;20023;-84
2022/06/17 05:14:16;;;;;;;1.58;1.48;;;;;;;;;;7393139;19;20002;-84
2022/06/17 05:16:42;;;;;;;2.45;1.23;;;;;;;;;;7402078;19;20512;-83
2022/06/17 05:19:07;;;;;;;2.97;1.58;;;;;;;;;;7395364;19;20003;-83
2022/06/17 05:21:32;;;;;;;1.40;1.10;;;;;;;;;;7394264;19;20007;-83
2022/06/17 05:23:59;;;;;;;3.22;1.33;;;;;;;;;;7393136;19;19998;-83
2022/06/17 05:26:24;;;;;;;1.95;1.20;;;;;;;;;;7399545;19;20018;-83
2022/06/17 05:28:50;;;;;;;2.05;1.40;;;;;;;;;;7399598;19;20017;-84
2022/06/17 05:31:21;;;;;;;2.63;1.50;;;;;;;;;;7395181;19;20375;-83
2022/06/17 05:33:47;;;;;;;1.40;1.30;;;;;;;;;;7394868;19;20003;-83
2022/06/17 05:36:12;;;;;;;1.63;1.20;;;;;;;;;;7398534;19;20132;-84
2022/06/17 05:38:38;;;;;;;2.17;1.20;;;;;;;;;;7399219;19;19999;-83
2022/06/17 05:41:05;;;;;;;1.90;1.30;;;;;;;;;;7396324;19;20003;-83
2022/06/17 05:43:31;;;;;;;2.67;1.20;;;;;;;;;;7398650;19;20465;-83
2022/06/17 05:45:56;;;;;;;3.90;1.20;;;;;;;;;;7395503;19;20002;-83
2022/06/17 05:48:22;;;;;;;5.00;1.88;;;;;;;;;;7398609;19;20453;-84
2022/06/17 05:50:47;;;;;;;2.63;1.30;;;;;;;;;;7396016;19;19995;-84
2022/06/17 05:53:13;;;;;;;2.15;1.27;;;;;;;;;;7395506;19;20006;-84
2022/06/17 05:55:39;;;;;;;1.42;1.17;;;;;;;;;;7395056;19;20003;-84
2022/06/17 05:58:05;;;;;;;1.42;1.33;;;;;;;;;;7395460;19;20307;-83
2022/06/17 06:00:32;;;;;;;3.55;1.20;;;;;;;;;;7400053;19;20003;-84
2022/06/17 06:03:00;;;;;;;3.17;1.30;;;;;;;;;;7391722;19;20011;-83
2022/06/17 06:05:28;;;;;;;2.10;1.85;;;;;;;;;;7394831;19;19991;-84
2022/06/17 06:07:53;;;;;;;8.73;3.00;;;;;;;;;;7395492;19;20010;-83
2022/06/17 06:10:20;;;;;;;6.70;1.67;;;;;;;;;;7398035;19;20023;-84
2022/06/17 06:12:56;;;;;;;1.73;1.38;;;;;;;;;;7394388;19;19994;-84
2022/06/17 06:15:26;;;;;;;1.42;1.20;;;;;;;;;;7395309;19;20018;-84
2022/06/17 06:17:52;;;;;;;2.55;1.30;;;;;;;;;;7396476;19;20019;-83
2022/06/17 06:20:17;;;;;;;2.10;1.40;;;;;;;;;;7399708;19;20001;-84
2022/06/17 06:22:43;;;;;;;1.38;1.05;;;;;;;;;;7395382;19;20006;-83
2022/06/17 06:25:11;;;;;;;1.50;1.40;;;;;;;;;;7400576;19;20014;-84
2022/06/17 06:27:36;;;;;;;3.25;1.30;;;;;;;;;;7400002;19;20496;-83
2022/06/17 06:30:02;;;;;;;2.10;1.17;;;;;;;;;;7395413;19;20059;-83
2022/06/17 06:32:28;;;;;;;3.20;1.65;;;;;;;;;;7395805;19;20470;-84
2022/06/17 06:34:53;;;;;;;2.55;1.30;;;;;;;;;;7397844;19;20014;-84
2022/06/17 06:37:19;;;;;;;3.13;1.27;;;;;;;;;;7399192;19;20033;-83
2022/06/17 06:39:45;;;;;;;3.88;1.15;;;;;;;;;;7400029;19;20378;-84
2022/06/17 06:42:10;;;;;;;2.45;1.30;;;;;;;;;;7396287;19;20407;-84
2022/06/17 06:44:36;;;;;;;3.95;1.33;;;;;;;;;;7395906;19;19999;-84
2022/06/17 06:47:02;;;;;;;2.03;0.93;;;;;;;;;;7398658;19;20023;-84
2022/06/17 06:49:27;;;;;;;1.55;1.25;;;;;;;;;;7399876;19;20010;-83
2022/06/17 06:51:53;;;;;;;2.58;1.58;;;;;;;;;;7395869;19;20345;-84
2022/06/17 06:54:18;;;;;;;1.95;1.42;;;;;;;;;;7394592;19;20066;-84
2022/06/17 06:56:43;;;;;;;3.83;1.85;;;;;;;;;;7395749;19;20536;-83
2022/06/17 06:59:11;;;;;;;1.45;1.30;;;;;;;;;;7397081;19;19994;-84
2022/06/17 07:01:37;;;;;;;2.30;1.35;;;;;;;;;;7394704;19;20050;-83
2022/06/17 07:04:03;;;;;;;6.80;1.30;;;;;;;;;;7394055;19;20485;-84
2022/06/17 07:06:28;;;;;;;4.07;1.35;;;;;;;;;;7394451;19;19998;-84
2022/06/17 07:08:54;;;;;;;3.08;1.40;;;;;;;;;;7393031;19;20330;-83
2022/06/17 07:11:19;;;;;;;1.85;1.30;;;;;;;;;;7396872;19;20018;-84
2022/06/17 07:13:44;;;;;;;1.67;1.38;;;;;;;;;;7394871;19;20023;-83
2022/06/17 07:16:12;;;;;;;5.20;1.63;;;;;;;;;;7391775;19;20003;-83
2022/06/17 07:18:38;;;;;;;3.05;1.25;;;;;;;;;;7393474;19;20007;-84
2022/06/17 07:21:07;;;;;;;2.03;1.25;;;;;;;;;;7396648;19;20010;-84
2022/06/17 07:23:35;;;;;;;5.68;1.60;;;;;;;;;;7397200;19;20040;-84
2022/06/17 07:26:05;;;;;;;2.33;1.38;;;;;;;;;;7393927;19;20030;-83
2022/06/17 07:28:31;;;;;;;2.65;1.90;;;;;;;;;;7392406;19;20490;-84
2022/06/17 07:30:57;;;;;;;3.90;1.70;;;;;;;;;;7393612;19;20085;-83
2022/06/17 07:33:26;;;;;;;1.08;0.98;;;;;;;;;;7395470;19;20021;-84
2022/06/17 07:35:55;;;;;;;4.53;1.45;;;;;;;;;;7395149;19;20011;-84
2022/06/17 07:41:09;;;;;;;4.22;1.23;;;;;;;;;;7398143;19;20027;-83
2022/06/17 07:43:35;;;;;;;4.38;1.50;;;;;;;;;;7392299;19;19998;-84
2022/06/17 07:46:01;;;;;;;4.75;1.50;;;;;;;;;;7396641;19;20008;-84
2022/06/17 07:48:27;;;;;;;3.55;1.20;;;;;;;;;;7394572;19;20007;-83
2022/06/17 07:50:53;;;;;;;3.97;1.45;;;;;;;;;;7399360;19;20672;-84
2022/06/17 07:53:19;;;;;;;5.75;1.58;;;;;;;;;;7397676;19;20437;-83
2022/06/17 07:55:44;;;;;;;2.67;1.48;;;;;;;;;;7391350;19;20027;-84
2022/06/17 07:58:12;;;;;;;2.03;1.40;;;;;;;;;;7394053;19;19994;-83
2022/06/17 08:00:41;;;;;;;2.88;1.60;;;;;;;;;;7395346;19;19998;-83
2022/06/17 08:03:06;;;;;;;1.63;1.30;;;;;;;;;;7396163;19;20008;-84
2022/06/17 08:05:32;;;;;;;2.95;1.30;;;;;;;;;;7397115;19;20005;-83
2022/06/17 08:07:58;;;;;;;1.95;1.50;;;;;;;;;;7392180;19;20110;-84
2022/06/17 08:10:28;;;;;;;3.28;1.80;;;;;;;;;;7392472;19;20010;-83
2022/06/17 08:13:05;;;;;;;2.65;1.73;;;;;;;;;;7394975;19;20384;-84
2022/06/17 08:15:35;;;;;;;5.00;1.30;;;;;;;;;;7392802;19;20014;-83
2022/06/17 08:18:01;;;;;;;4.38;1.40;;;;;;;;;;7393150;19;20068;-84
2022/06/17 08:20:30;;;;;;;4.03;1.60;;;;;;;;;;7398336;19;20053;-83
2022/06/17 08:22:56;;;;;;;4.68;2.00;;;;;;;;;;7396596;19;20003;-83
2022/06/17 08:25:22;;;;;;;4.47;1.75;;;;;;;;;;7395545;19;20300;-83
2022/06/17 08:27:50;;;;;;;1.95;1.27;;;;;;;;;;7398191;19;20034;-84
2022/06/17 08:30:17;;;;;;;1.98;1.25;;;;;;;;;;7401558;19;20338;-83
2022/06/17 08:32:46;;;;;;;3.53;1.25;;;;;;;;;;7403137;19;20044;-83
2022/06/17 08:35:20;;;;;;;3.45;1.73;;;;;;;;;;7400194;19;20110;-84
2022/06/17 08:37:48;;;;;;;3.42;1.63;;;;;;;;;;7397450;19;20396;-83
2022/06/17 08:40:25;;;;;;;1.27;1.15;;;;;;;;;;7404900;19;20010;-83
2022/06/17 08:43:14;;;;;;;3.90;1.45;;;;;;;;;;7401244;19;20479;-84
2022/06/17 08:45:55;;;;;;;4.63;1.70;;;;;;;;;;7400654;19;19998;-84
2022/06/17 08:48:26;;;;;;;4.38;1.58;;;;;;;;;;7404797;19;20010;-84
2022/06/17 08:51:22;;;;;;;1.60;1.30;;;;;;;;;;7401170;19;19998;-84
2022/06/17 08:53:59;;;;;;;5.88;1.95;;;;;;;;;;7401242;19;19994;-83
2022/06/17 08:56:41;;;;;;;3.50;1.80;;;;;;;;;;7405016;19;20015;-83
2022/06/17 08:59:13;;;;;;;2.30;1.63;;;;;;;;;;7402530;19;20030;-84
2022/06/17 09:01:44;;;;;;;3.38;1.60;;;;;;;;;;7401343;19;20569;-83
2022/06/17 09:04:35;;;;;;;5.90;1.77;;;;;;;;;;7400255;19;20015;-84
2022/06/17 09:07:28;;;;;;;6.53;1.58;;;;;;;;;;7400476;19;19995;-84
2022/06/17 09:10:04;;;;;;;2.38;1.40;;;;;;;;;;7395697;19;20134;-84
2022/06/17 09:13:20;;;;;;;4.03;1.42;;;;;;;;;;7394906;19;20002;-84
2022/06/17 09:15:58;;;;;;;2.73;1.20;;;;;;;;;;7400515;19;20105;-83
2022/06/17 09:18:42;;;;;;;1.33;1.20;;;;;;;;;;7402046;19;19995;-84
2022/06/17 09:21:14;;;;;;;2.50;1.40;;;;;;;;;;7396040;19;20418;-83
2022/06/17 09:23:41;;;;;;;2.47;1.20;;;;;;;;;;7403504;19;20081;-85
2022/06/17 09:26:19;;;;;;;3.63;1.60;;;;;;;;;;7400890;19;20065;-84
2022/06/17 09:29:14;;;;;;;1.85;1.13;;;;;;;;;;7402228;19;20370;-83
2022/06/17 09:31:44;;;;;;;;;;;;;;;;;;7397921;19;19998;-84
2022/06/17 09:34:28;;;;;;;1.67;1.00;;;;;;;;;;7397222;19;19939;-84
2022/06/17 09:37:01;;;;;;;2.65;1.30;;;;;;;;;;7400836;19;20359;-83
2022/06/17 09:39:41;;;;;;;2.03;1.20;;;;;;;;;;7399802;19;20013;-84
2022/06/17 09:42:12;;;;;;;2.65;1.30;;;;;;;;;;7399952;19;20007;-84
2022/06/17 09:44:42;;;;;;;2.38;1.10;;;;;;;;;;7401310;19;20010;-84
2022/06/17 09:47:21;;;;;;;3.13;1.20;;;;;;;;;;7403680;19;20001;-84
2022/06/17 09:49:54;;;;;;;2.17;1.38;;;;;;;;;;7396242;19;20433;-84
2022/06/17 09:52:27;;;;;;;2.20;0.90;;;;;;;;;;7400345;19;20426;-84
2022/06/17 09:55:13;;;;;;;2.15;1.17;;;;;;;;;;7402597;19;20003;-85
2022/06/17 09:58:02;;;;;;;2.00;0.90;;;;;;;;;;7398427;19;20338;-84
2022/06/17 10:00:36;;;;;;;3.72;1.17;;;;;;;;;;7395576;19;19990;-84
2022/06/17 10:03:07;;;;;;;1.27;0.93;;;;;;;;;;7399827;19;20017;-84
2022/06/17 10:06:14;;;;;;;4.28;1.10;;;;;;;;;;7402413;19;20032;-84
2022/06/17 10:08:59;;;;;;;2.63;1.00;;;;;;;;;;7398743;19;20003;-84
2022/06/17 10:11:50;;;;;;;1.60;0.95;;;;;;;;;;7396197;19;20449;-84
2022/06/17 10:14:34;;;;;;;3.00;1.20;;;;;;;;;;7400386;19;20007;-84
2022/06/17 10:20:20;;;;;;;6.40;1.08;;;;;;;;;;7402419;19;20005;-84
2022/06/17 10:23:03;;;;;;;1.77;0.90;;;;;;;;;;7400203;19;20501;-84
2022/06/17 10:25:38;;;;;;;1.20;0.70;;;;;;;;;;7404485;19;20307;-84
2022/06/17 10:28:25;;;;;;;2.88;0.93;;;;;;;;;;7400658;19;19995;-84
2022/06/17 10:31:06;;;;;;;1.40;0.80;;;;;;;;;;7399631;19;19986;-85
2022/06/17 10:33:34;;;;;;;3.08;1.00;;;;;;;;;;7402767;19;20006;-84
2022/06/17 10:36:00;;;;;;;1.95;0.98;;;;;;;;;;7402436;19;20026;-84
2022/06/17 10:38:34;;;;;;;9.02;0.93;;;;;;;;;;7401674;19;20003;-84
2022/06/17 10:41:00;;;;;;;4.28;2.50;;;;;;;;;;7398104;19;20003;-84
2022/06/17 10:43:43;;;;;;;2.40;1.25;;;;;;;;;;7399494;19;19998;-84
2022/06/17 10:46:32;;;;;;;1.13;0.98;;;;;;;;;;7399608;19;20014;-84
2022/06/17 10:49:03;;;;;;;1.67;0.93;;;;;;;;;;7399831;19;20002;-84
2022/06/17 10:51:29;;;;;;;0.77;0.75;;;;;;;;;;7397485;19;20002;-84
2022/06/17 10:54:02;;;;;;;4.07;1.20;;;;;;;;;;7401637;19;20010;-85
2022/06/17 10:56:34;;;;;;;5.50;1.00;;;;;;;;;;7399968;19;20404;-84
2022/06/17 10:59:02;;;;;;;0.85;0.85;;;;;;;;;;7397800;19;20015;-84
2022/06/17 11:01:46;;;;;;;2.17;0.98;;;;;;;;;;7400622;19;20018;-84
2022/06/17 11:04:17;;;;;;;2.08;0.90;;;;;;;;;;7402189;19;20482;-84
2022/06/17 11:06:51;;;;;;;2.88;1.00;;;;;;;;;;7397911;19;20014;-84
2022/06/17 11:09:25;;;;;;;1.70;0.95;;;;;;;;;;7398721;19;20018;-85
2022/06/17 11:12:10;;;;;;;2.92;1.20;;;;;;;;;;7401169;19;19998;-84
2022/06/17 11:14:41;;;;;;;3.13;1.10;;;;;;;;;;7402829;19;20015;-85
2022/06/17 11:17:28;;;;;;;1.55;1.02;;;;;;;;;;7397433;19;20093;-84
2022/06/17 11:19:57;;;;;;;2.67;1.10;;;;;;;;;;7397666;19;19994;-84
2022/06/17 11:22:25;;;;;;;1.92;1.00;;;;;;;;;;7396017;19;19998;-85
2022/06/17 11:24:56;;;;;;;1.35;0.98;;;;;;;;;;7400863;19;20017;-84
2022/06/17 11:27:21;;;;;;;2.08;0.93;;;;;;;;;;7398382;19;20003;-84
2022/06/17 11:29:50;;;;;;;5.43;1.08;;;;;;;;;;7398860;19;20040;-84
2022/06/17 11:32:27;;;;;;;1.15;0.93;;;;;;;;;;7400296;19;19999;-84
2022/06/17 11:34:59;;;;;;;2.72;1.05;;;;;;;;;;7399128;19;20001;-85
2022/06/17 11:37:27;;;;;;;1.38;1.05;;;;;;;;;;7399767;19;19990;-84
2022/06/17 11:40:14;;;;;;;5.22;2.67;;;;;;;;;;7402513;19;20005;-85
2022/06/17 11:42:56;;;;;;;3.08;1.00;;;;;;;;;;7399681;19;20339;-85
2022/06/17 11:45:25;;;;;;;3.35;1.02;;;;;;;;;;7399375;19;20005;-85
2022/06/17 11:47:57;;;;;;;1.05;0.90;;;;;;;;;;7400058;19;20023;-85
2022/06/17 11:50:37;;;;;;;2.50;1.08;;;;;;;;;;7401414;19;19999;-85
2022/06/17 11:53:07;;;;;;;1.92;1.10;;;;;;;;;;7396229;19;20018;-85
2022/06/17 11:55:40;;;;;;;2.25;1.10;;;;;;;;;;7396769;19;20019;-85
2022/06/17 11:58:05;;;;;;;1.88;0.85;;;;;;;;;;7398492;19;20018;-84
2022/06/17 12:00:55;;;;;;;2.30;0.90;;;;;;;;;;7400610;19;20006;-84
2022/06/17 12:04:11;;;;;;;1.38;0.98;;;;;;;;;;7403662;19;20027;-84
2022/06/17 12:14:21;;;;;;;1.33;1.00;;;;;;;;;;7406833;19;20082;-83
2022/06/17 12:20:22;;;;;;;1.00;1.00;;;;;;;;;;7404131;19;19994;-84
2022/06/17 12:22:58;;;;;;;2.40;0.80;;;;;;;;;;7407755;19;20030;-84
2022/06/17 12:25:40;;;;;;;1.10;0.93;;;;;;;;;;7405590;19;20039;-84
2022/06/17 12:28:28;;;;;;;1.70;0.98;;;;;;;;;;7403142;19;19999;-84
2022/06/17 12:31:26;;;;;;;0.98;0.70;;;;;;;;;;7402389;19;20481;-84
2022/06/17 12:34:10;;;;;;;1.60;1.00;;;;;;;;;;7403904;19;20066;-84
2022/06/17 12:37:11;;;;;;;1.30;0.77;;;;;;;;;;7408319;19;19999;-84
2022/06/17 12:39:47;;;;;;;1.35;0.88;;;;;;;;;;7404011;19;19995;-84
2022/06/17 12:42:38;;;;;;;1.77;0.80;;;;;;;;;;7402458;19;19999;-84
2022/06/17 12:45:19;;;;;;;2.75;0.85;;;;;;;;;;7405329;19;20014;-84
2022/06/17 12:47:47;;;;;;;2.05;1.00;;;;;;;;;;7403191;19;20018;-84
2022/06/17 12:54:08;;;;;;;0.85;0.80;;;;;;;;;;7419072;19;20008;-85
2022/06/17 13:01:07;;;;;;;0.82;0.80;;;;;;;;;;7417290;19;19998;-85
2022/06/17 13:04:09;;;;;;;2.13;0.85;;;;;;;;;;7394739;19;20011;-85
2022/06/17 13:06:50;;;;;;;0.80;0.73;;;;;;;;;;7400063;19;20541;-86
2022/06/17 13:09:30;;;;;;;0.90;0.80;;;;;;;;;;7397693;19;20006;-85
2022/06/17 13:12:23;;;;;;;1.25;0.80;;;;;;;;;;7400907;19;20010;-85
2022/06/17 13:15:01;;;;;;;1.10;0.82;;;;;;;;;;7396690;19;20366;-86
2022/06/17 13:17:27;;;;;;;3.47;1.08;;;;;;;;;;7402396;19;19998;-86
2022/06/17 13:20:01;;;;;;;0.75;0.63;;;;;;;;;;7401179;19;20035;-86
2022/06/17 13:22:37;;;;;;;3.28;0.85;;;;;;;;;;7399917;19;19994;-85
2022/06/17 13:25:10;;;;;;;2.58;0.80;;;;;;;;;;7402428;19;20010;-86
2022/06/17 13:27:48;;;;;;;1.73;0.70;;;;;;;;;;7400028;19;20003;-85
2022/06/17 13:30:58;;;;;;;1.20;0.80;;;;;;;;;;7401092;19;20019;-85
2022/06/17 13:33:38;;;;;;;1.23;0.70;;;;;;;;;;7395025;19;20007;-85
2022/06/17 13:36:09;;;;;;;3.67;0.80;;;;;;;;;;7392897;19;20013;-84
2022/06/17 13:38:46;;;;;;;1.13;0.80;;;;;;;;;;7397781;19;20054;-83
2022/06/17 13:41:32;;;;;;;0.70;0.70;;;;;;;;;;7398952;19;20019;-83
2022/06/17 13:44:00;;;;;;;0.60;0.60;;;;;;;;;;7400727;19;20130;-83
2022/06/17 13:46:51;;;;;;;0.98;0.70;;;;;;;;;;7401355;19;20041;-84
2022/06/17 13:49:53;;;;;;;2.15;0.60;;;;;;;;;;7399458;19;20062;-84
2022/06/17 13:52:34;;;;;;;1.00;0.65;;;;;;;;;;7397189;19;20007;-84
2022/06/17 13:55:00;;;;;;;2.05;0.85;;;;;;;;;;7397007;19;20057;-84
2022/06/17 13:57:53;;;;;;;1.63;0.77;;;;;;;;;;7402456;19;20355;-84
2022/06/17 14:00:22;;;;;;;0.57;0.57;;;;;;;;;;7398008;19;20010;-84
2022/06/17 14:03:01;;;;;;;1.25;0.77;;;;;;;;;;7396323;19;20007;-85
2022/06/17 14:05:29;;;;;;;1.77;0.80;;;;;;;;;;7399538;19;20006;-84
2022/06/17 14:08:04;;;;;;;1.38;0.70;;;;;;;;;;7402364;19;20013;-85
2022/06/17 14:10:40;;;;;;;0.82;0.82;;;;;;;;;;7396483;19;20046;-85
2022/06/17 14:13:49;;;;;;;1.80;0.85;;;;;;;;;;7397923;19;20442;-84
2022/06/17 14:16:26;;;;;;;1.48;0.60;;;;;;;;;;7402613;19;20450;-84
2022/06/17 14:19:03;;;;;;;0.60;0.60;;;;;;;;;;7403845;19;20032;-85
2022/06/17 14:22:01;;;;;;;0.95;0.88;;;;;;;;;;7403497;19;20002;-85
2022/06/17 14:24:42;;;;;;;1.13;0.68;;;;;;;;;;7412168;19;20010;-84
2022/06/17 14:27:33;;;;;;;0.75;0.63;;;;;;;;;;7425825;19;20023;-84
2022/06/17 14:30:10;;;;;;;3.50;0.70;;;;;;;;;;7428101;19;19998;-84
2022/06/17 14:32:49;;;;;;;0.80;0.80;;;;;;;;;;7423784;19;20023;-84
2022/06/17 14:35:49;;;;;;;1.40;0.80;;;;;;;;;;7424977;19;20021;-84
2022/06/17 14:38:22;;;;;;;2.22;0.80;;;;;;;;;;7428507;19;20011;-83
2022/06/17 14:43:45;;;;;;;0.98;0.98;;;;;;;;;;7429151;19;20041;-84
2022/06/17 14:46:10;;;;;;;1.38;0.80;;;;;;;;;;7427347;19;19991;-84
2022/06/17 14:48:43;;;;;;;0.77;0.70;;;;;;;;;;7428173;19;20013;-84
2022/06/17 14:51:30;;;;;;;0.90;0.75;;;;;;;;;;7408234;19;20024;-84
2022/06/17 14:53:58;;;;;;;3.22;0.82;;;;;;;;;;7397953;19;20361;-85
2022/06/17 14:56:35;;;;;;;1.75;1.10;;;;;;;;;;7399728;19;19987;-85
2022/06/17 14:59:11;;;;;;;1.23;1.13;;;;;;;;;;7399874;19;20118;-85
2022/06/17 15:01:49;;;;;;;0.82;0.80;;;;;;;;;;7394276;19;20015;-84
2022/06/17 15:04:26;;;;;;;1.05;0.70;;;;;;;;;;7396332;19;20015;-85
2022/06/17 15:06:53;;;;;;;0.65;0.50;;;;;;;;;;7398830;19;19998;-85
2022/06/17 15:09:28;;;;;;;0.80;0.80;;;;;;;;;;7396486;19;20140;-85
2022/06/17 15:12:14;;;;;;;0.80;0.70;;;;;;;;;;7398238;19;20003;-85
2022/06/17 15:14:49;;;;;;;0.93;0.70;;;;;;;;;;7394105;19;20050;-85
2022/06/17 15:17:19;;;;;;;3.33;0.73;;;;;;;;;;7394248;19;19994;-85
2022/06/17 15:19:50;;;;;;;1.20;0.95;;;;;;;;;;7394782;19;20437;-85
2022/06/17 15:22:18;;;;;;;1.02;0.93;;;;;;;;;;7391726;19;20006;-85
2022/06/17 15:25:08;;;;;;;0.70;0.70;;;;;;;;;;7391282;19;20002;-85
2022/06/17 15:27:36;;;;;;;1.10;0.70;;;;;;;;;;7391839;19;20006;-85
2022/06/17 15:30:34;;;;;;;1.00;0.80;;;;;;;;;;7392718;19;20010;-85
2022/06/17 15:33:14;;;;;;;0.70;0.68;;;;;;;;;;7392276;19;20330;-85
2022/06/17 15:35:40;;;;;;;5.25;1.10;;;;;;;;;;7392598;19;20010;-85
2022/06/17 15:38:28;;;;;;;3.05;0.80;;;;;;;;;;7389411;19;20006;-85
2022/06/17 15:41:15;;;;;;;2.70;0.90;;;;;;;;;;7391447;19;19998;-85
2022/06/17 15:43:52;;;;;;;2.13;0.70;;;;;;;;;;7394301;19;20011;-84
2022/06/17 15:46:30;;;;;;;2.63;1.20;;;;;;;;;;7394517;19;20074;-85
2022/06/17 15:49:03;;;;;;;1.15;0.75;;;;;;;;;;7392498;19;20014;-85
2022/06/17 15:51:30;;;;;;;2.25;1.20;;;;;;;;;;7393429;19;19999;-85